Time;durP1;ratioP1;P1;durP2;ratioP2;P2;SDS_P1;SDS_P2;PMS_P1;PMS_P2;Temp;Humidity;BMP_temperature;BMP_pressure;BME280_temperature;BME280_humidity;BME280_pressure;Samples;Min_cycle;Max_cycle;Signal;HPM_P1;HPM_P2
2024/01/03 00:00:33;;;;;;;5.68;1.33;;;;;;;18.59;45.53;98686.09;5089431;28;20028;-73
2024/01/03 00:02:59;;;;;;;;;;;;;;;18.57;45.45;98679.38;5078314;28;20044;-71
2024/01/03 00:05:45;;;;;;;6.13;1.38;;;;;;;18.56;45.28;98680.34;5088900;28;20291;-72
2024/01/03 00:08:15;;;;;;;7.68;1.70;;;;;;;18.57;45.05;98687.28;5088828;28;20044;-72
2024/01/03 00:10:41;;;;;;;6.95;1.80;;;;;;;18.55;45.46;98691.88;5089924;28;20032;-73
2024/01/03 00:15:59;;;;;;;4.55;1.20;;;;;;;18.53;45.23;98699.16;5089225;28;20048;-73
2024/01/03 00:18:37;;;;;;;5.30;1.40;;;;;;;18.53;45.14;98691.25;5089042;28;20024;-71
2024/01/03 00:21:03;;;;;;;6.10;1.40;;;;;;;18.41;45.06;98701.44;5088220;28;20502;-74
2024/01/03 00:23:37;;;;;;;7.18;1.50;;;;;;;18.38;45.23;98692.03;5089029;28;20028;-71
2024/01/03 00:26:03;;;;;;;4.07;1.20;;;;;;;18.48;44.98;98713.72;5089363;28;20036;-71
2024/01/03 00:28:29;;;;;;;5.30;1.50;;;;;;;18.39;45.11;98720.06;5088932;28;20115;-72
2024/01/03 00:30:54;;;;;;;6.38;1.75;;;;;;;18.40;45.02;98718.25;5088894;28;20028;-70
2024/01/03 00:33:20;;;;;;;6.10;1.63;;;;;;;18.44;45.21;98740.63;5089188;28;20028;-72
2024/01/03 00:35:45;;;;;;;6.25;1.50;;;;;;;18.45;45.12;98745.75;5070238;28;20023;-70
2024/01/03 00:38:11;;;;;;;6.55;1.77;;;;;;;18.46;45.07;98749.19;5089215;28;20114;-73
2024/01/03 00:40:36;;;;;;;5.88;1.33;;;;;;;18.39;45.17;98733.25;5088757;28;20099;-70
2024/01/03 00:43:02;;;;;;;7.97;1.70;;;;;;;18.35;45.00;98755.69;5089122;28;20135;-72
2024/01/03 00:45:27;;;;;;;5.28;1.38;;;;;;;18.39;45.26;98757.00;5088787;28;20111;-72
2024/01/03 00:47:52;;;;;;;5.67;1.37;;;;;;;18.34;44.89;98746.16;5088671;28;20036;-73
2024/01/03 00:50:18;;;;;;;4.90;1.67;;;;;;;18.38;45.11;98751.91;5088920;28;20303;-71
2024/01/03 00:52:43;;;;;;;6.30;1.98;;;;;;;18.41;45.02;98770.81;5088964;28;20073;-73
2024/01/03 00:55:09;;;;;;;5.20;1.67;;;;;;;18.38;45.29;98773.81;5088461;28;20041;-72
2024/01/03 00:57:36;;;;;;;7.45;1.77;;;;;;;18.34;45.26;98750.59;5088539;28;20032;-71
2024/01/03 01:00:03;;;;;;;7.43;2.00;;;;;;;18.37;45.30;98768.69;5088752;28;20032;-72
2024/01/03 01:02:29;;;;;;;4.68;1.70;;;;;;;18.38;45.67;98759.81;5086809;28;20038;-72
2024/01/03 01:04:54;;;;;;;7.15;1.90;;;;;;;18.30;45.25;98744.84;5088811;28;20115;-71
2024/01/03 01:07:20;;;;;;;8.05;2.40;;;;;;;18.32;45.15;98758.69;5088604;28;20028;-73
2024/01/03 01:09:45;;;;;;;7.03;1.80;;;;;;;18.27;45.26;98771.56;5088607;28;20032;-71
2024/01/03 01:12:11;;;;;;;7.00;1.70;;;;;;;18.35;45.40;98781.25;5088237;28;20036;-73
2024/01/03 01:14:36;;;;;;;6.80;1.60;;;;;;;18.33;45.67;98772.69;5088786;28;20399;-75
2024/01/03 01:17:01;;;;;;;6.68;1.77;;;;;;;18.30;45.69;98779.94;5088675;28;20141;-71
2024/01/03 01:19:27;;;;;;;8.38;1.98;;;;;;;18.25;45.27;98778.84;5088739;28;20032;-73
2024/01/03 01:21:53;;;;;;;6.25;1.73;;;;;;;18.31;45.35;98786.06;5091078;28;20036;-72
2024/01/03 01:24:18;;;;;;;4.88;1.55;;;;;;;18.23;45.43;98765.84;5090927;28;20036;-73
2024/01/03 01:26:43;;;;;;;6.88;1.58;;;;;;;18.23;45.45;98786.94;5090779;28;20024;-73
2024/01/03 01:29:09;;;;;;;7.15;1.67;;;;;;;18.22;45.62;98785.28;5089830;28;20028;-72
2024/01/03 01:31:34;;;;;;;6.63;1.75;;;;;;;18.29;45.57;98788.88;5087941;28;20032;-73
2024/01/03 01:33:59;;;;;;;5.63;1.30;;;;;;;18.21;45.50;98780.19;5089495;28;20031;-69
2024/01/03 01:36:24;;;;;;;7.78;2.17;;;;;;;18.28;45.71;98795.13;5090006;28;20263;-71
2024/01/03 01:38:50;;;;;;;6.65;1.70;;;;;;;18.17;45.71;98774.44;5089809;28;20665;-73
2024/01/03 01:41:15;;;;;;;7.30;2.03;;;;;;;18.26;45.60;98783.09;5089631;28;20035;-73
2024/01/03 01:43:40;;;;;;;8.55;2.33;;;;;;;18.26;45.56;98791.88;5088778;28;20030;-74
2024/01/03 01:46:09;;;;;;;6.60;1.67;;;;;;;18.26;45.57;98805.03;5086905;28;20469;-74
2024/01/03 01:48:34;;;;;;;8.32;2.00;;;;;;;18.18;45.58;98798.97;5086125;28;20043;-73
2024/01/03 01:51:00;;;;;;;4.53;1.60;;;;;;;18.15;45.75;98783.50;5086630;28;20085;-70
2024/01/03 01:53:26;;;;;;;8.52;2.08;;;;;;;18.22;45.64;98803.75;5086976;28;20071;-74
2024/01/03 01:55:51;;;;;;;6.75;1.73;;;;;;;18.13;45.72;98797.72;5084940;28;20118;-72
2024/01/03 01:58:18;;;;;;;6.78;1.73;;;;;;;18.23;45.65;98813.31;5086486;28;20137;-73
2024/01/03 02:00:44;;;;;;;8.15;2.53;;;;;;;18.21;45.67;98809.19;5085851;28;20154;-74
2024/01/03 02:03:11;;;;;;;8.00;1.73;;;;;;;18.17;45.79;98811.34;5085168;28;20737;-70
2024/01/03 02:05:37;;;;;;;7.35;1.88;;;;;;;18.11;45.69;98807.59;5086351;28;20040;-70
2024/01/03 02:08:07;;;;;;;9.32;2.33;;;;;;;18.21;45.56;98836.38;5086526;28;20028;-73
2024/01/03 02:10:32;;;;;;;7.82;1.92;;;;;;;18.10;45.85;98837.59;5086203;28;20460;-73
2024/01/03 02:12:57;;;;;;;7.40;1.85;;;;;;;18.16;45.77;98838.72;5086494;28;20024;-72
2024/01/03 02:15:23;;;;;;;6.15;1.65;;;;;;;18.17;45.74;98844.81;5086330;28;20040;-72
2024/01/03 02:17:49;;;;;;;7.35;1.77;;;;;;;18.07;45.66;98832.66;5086142;28;20081;-73
2024/01/03 02:20:14;;;;;;;6.32;1.67;;;;;;;18.19;45.80;98856.00;5086215;28;20040;-70
2024/01/03 02:22:40;;;;;;;9.15;2.42;;;;;;;18.17;45.74;98856.19;5085890;28;20031;-71
2024/01/03 02:25:10;;;;;;;7.05;2.10;;;;;;;18.17;45.78;98858.81;5086145;28;20062;-71
2024/01/03 02:27:35;;;;;;;6.97;1.60;;;;;;;18.08;45.96;98834.28;5085794;28;20066;-75
2024/01/03 02:30:01;;;;;;;6.72;1.90;;;;;;;18.08;45.88;98838.75;5086208;28;20384;-71
2024/01/03 02:32:26;;;;;;;7.85;2.22;;;;;;;18.07;45.99;98840.56;5085391;28;21268;-72
2024/01/03 02:34:51;;;;;;;6.47;1.83;;;;;;;18.07;45.93;98845.84;5086294;28;20040;-74
2024/01/03 02:37:22;;;;;;;7.13;1.70;;;;;;;18.16;46.08;98858.97;5085900;28;20261;-74
2024/01/03 02:39:47;;;;;;;6.38;1.92;;;;;;;18.08;45.85;98851.94;5086166;28;20461;-73
2024/01/03 02:42:12;;;;;;;6.93;1.60;;;;;;;18.13;46.08;98862.78;5086139;28;20039;-72
2024/01/03 02:44:38;;;;;;;6.30;1.58;;;;;;;18.06;46.16;98840.75;5086069;28;20071;-70
2024/01/03 02:47:03;;;;;;;8.45;2.10;;;;;;;18.06;45.98;98844.19;5067424;28;20028;-74
2024/01/03 02:49:28;;;;;;;7.85;1.83;;;;;;;18.12;46.00;98861.97;5085471;28;20059;-73
2024/01/03 02:51:54;;;;;;;5.43;1.80;;;;;;;17.97;45.89;98836.50;5086113;28;20040;-72
2024/01/03 02:54:19;;;;;;;6.50;1.83;;;;;;;18.03;45.92;98863.00;5085844;28;20032;-71
2024/01/03 02:56:44;;;;;;;7.22;2.17;;;;;;;18.11;46.00;98852.41;5085868;28;20039;-70
2024/01/03 02:59:10;;;;;;;8.27;1.90;;;;;;;18.05;46.00;98853.09;5085906;28;20028;-70
2024/01/03 03:01:35;;;;;;;5.40;1.70;;;;;;;18.03;45.74;98857.72;5085942;28;20284;-69
2024/01/03 03:04:01;;;;;;;6.10;1.80;;;;;;;17.99;46.12;98858.22;5084447;28;20261;-70
2024/01/03 03:06:26;;;;;;;6.55;2.10;;;;;;;18.09;46.02;98872.84;5085947;28;20032;-72
2024/01/03 03:08:52;;;;;;;6.60;1.80;;;;;;;18.00;46.11;98858.06;5086033;28;20412;-72
2024/01/03 03:11:17;;;;;;;7.25;1.88;;;;;;;18.08;45.89;98865.91;5085865;28;20101;-72
2024/01/03 03:13:42;;;;;;;6.97;1.83;;;;;;;18.08;45.94;98880.94;5085500;28;20039;-73
2024/01/03 03:16:08;;;;;;;7.32;1.90;;;;;;;18.06;46.23;98872.38;5085785;28;20107;-70
2024/01/03 03:18:33;;;;;;;5.20;1.77;;;;;;;18.00;46.34;98865.97;5085817;28;20416;-71
2024/01/03 03:21:00;;;;;;;8.70;1.88;;;;;;;18.04;46.21;98880.47;5085704;28;20032;-71
2024/01/03 03:23:25;;;;;;;8.00;2.10;;;;;;;17.95;46.22;98866.47;5085743;28;20039;-72
2024/01/03 03:25:50;;;;;;;5.93;1.90;;;;;;;17.94;45.91;98856.94;5085444;28;20115;-72
2024/01/03 03:28:16;;;;;;;5.03;1.50;;;;;;;17.94;46.20;98858.75;5085607;28;20036;-72
2024/01/03 03:30:41;;;;;;;8.20;2.35;;;;;;;18.01;46.22;98880.81;5085406;28;20055;-72
2024/01/03 03:33:06;;;;;;;7.18;2.10;;;;;;;18.03;46.30;98884.06;5085305;28;20024;-72
2024/01/03 03:35:32;;;;;;;7.22;1.92;;;;;;;18.04;46.28;98885.72;5084885;28;20032;-72
2024/01/03 03:37:57;;;;;;;6.77;2.27;;;;;;;17.95;46.26;98870.94;5085243;28;20077;-72
2024/01/03 03:40:23;;;;;;;7.03;1.83;;;;;;;17.95;46.27;98865.66;5085343;28;20273;-73
2024/01/03 03:42:49;;;;;;;9.23;1.90;;;;;;;18.03;46.20;98881.44;5085077;28;20032;-71
2024/01/03 03:45:14;;;;;;;6.32;1.50;;;;;;;18.04;46.52;98885.72;5085436;28;20514;-73
2024/01/03 03:47:39;;;;;;;8.10;2.30;;;;;;;17.95;46.38;98861.22;5086227;28;20051;-72
2024/01/03 03:50:05;;;;;;;6.80;1.83;;;;;;;18.04;46.58;98879.63;5085907;28;20311;-72
2024/01/03 03:52:31;;;;;;;5.75;1.67;;;;;;;18.02;46.57;98869.25;5085954;28;20032;-70
2024/01/03 03:54:56;;;;;;;6.57;2.17;;;;;;;17.95;46.35;98861.22;5089416;28;20073;-70
2024/01/03 03:57:21;;;;;;;6.67;1.60;;;;;;;17.98;46.62;98870.59;5089579;28;20032;-72
2024/01/03 03:59:46;;;;;;;6.95;1.90;;;;;;;17.92;46.33;98852.81;5089606;28;20267;-71
2024/01/03 04:02:12;;;;;;;6.40;1.90;;;;;;;18.01;46.49;98869.41;5088095;28;20040;-73
2024/01/03 04:04:37;;;;;;;8.25;2.03;;;;;;;17.91;46.60;98851.19;5089337;28;20260;-73
2024/01/03 04:07:02;;;;;;;6.83;1.80;;;;;;;17.98;46.63;98872.41;5089619;28;20034;-72
2024/01/03 04:09:27;;;;;;;7.97;1.70;;;;;;;17.98;46.59;98878.50;5089243;28;20757;-75
2024/01/03 04:11:53;;;;;;;6.70;1.67;;;;;;;17.97;46.55;98883.94;5089169;28;20110;-73
2024/01/03 04:14:18;;;;;;;8.38;1.83;;;;;;;17.97;46.40;98876.03;5089232;28;20758;-75
2024/01/03 04:16:43;;;;;;;6.80;1.77;;;;;;;17.99;46.80;98887.22;5088243;28;20089;-72
2024/01/03 04:19:09;;;;;;;5.68;1.52;;;;;;;17.88;46.60;98877.88;5088404;28;20292;-71
2024/01/03 04:21:34;;;;;;;6.22;2.03;;;;;;;17.88;46.55;98872.59;5069664;28;20069;-75
2024/01/03 04:23:59;;;;;;;7.45;2.10;;;;;;;17.94;46.60;98890.38;5088128;28;20032;-71
2024/01/03 04:26:26;;;;;;;8.32;2.25;;;;;;;17.97;46.53;98891.84;5087989;28;20036;-71
2024/01/03 04:28:51;;;;;;;6.53;1.70;;;;;;;17.97;46.37;98886.59;5088121;28;20040;-73
2024/01/03 04:31:17;;;;;;;7.20;1.93;;;;;;;17.95;46.51;98889.38;5088111;28;20020;-73
2024/01/03 04:33:42;;;;;;;5.75;1.60;;;;;;;17.94;46.56;98885.09;5089021;28;20369;-74
2024/01/03 04:36:10;;;;;;;7.53;1.80;;;;;;;17.94;46.64;98895.63;5088824;28;20420;-72
2024/01/03 04:38:35;;;;;;;5.82;1.52;;;;;;;17.92;46.52;98889.72;5088837;28;20032;-75
2024/01/03 04:41:00;;;;;;;5.80;1.50;;;;;;;17.93;46.62;98905.38;5088834;28;20024;-72
2024/01/03 04:43:26;;;;;;;5.38;1.50;;;;;;;17.84;46.62;98876.56;5088704;28;20035;-75
2024/01/03 04:45:51;;;;;;;5.22;1.50;;;;;;;17.82;46.49;98876.72;5088551;28;20065;-72
2024/01/03 04:48:16;;;;;;;7.80;1.90;;;;;;;17.88;46.43;98888.41;5088208;28;20028;-74
2024/01/03 04:50:42;;;;;;;4.90;1.30;;;;;;;17.83;46.51;98883.66;5088443;28;20154;-74
2024/01/03 04:53:07;;;;;;;5.57;1.65;;;;;;;17.82;46.56;98889.09;5088240;28;20076;-75
2024/01/03 04:55:32;;;;;;;4.95;1.40;;;;;;;17.83;46.50;98890.72;5088480;28;20059;-74
2024/01/03 04:57:58;;;;;;;7.00;1.75;;;;;;;17.89;46.32;98904.06;5088011;28;20097;-73
2024/01/03 05:00:24;;;;;;;5.88;1.40;;;;;;;17.82;46.34;98883.81;5088374;28;20460;-70
2024/01/03 05:02:49;;;;;;;5.55;1.70;;;;;;;17.82;46.40;98887.25;5086414;28;20043;-72
2024/01/03 05:05:14;;;;;;;4.75;1.27;;;;;;;17.88;46.46;98893.69;5087239;28;20039;-72
2024/01/03 05:07:39;;;;;;;4.60;1.20;;;;;;;17.82;46.45;98897.00;5088034;28;20039;-74
2024/01/03 05:10:08;;;;;;;5.47;1.50;;;;;;;17.79;46.25;98902.59;5088227;28;20036;-75
2024/01/03 05:12:34;;;;;;;4.78;1.38;;;;;;;17.82;46.19;98899.63;5069901;28;20032;-71
2024/01/03 05:14:59;;;;;;;4.57;1.27;;;;;;;17.83;46.36;98896.81;5088080;28;20024;-74
2024/01/03 05:17:26;;;;;;;5.68;1.30;;;;;;;17.89;46.44;98900.59;5087744;28;20028;-72
2024/01/03 05:19:52;;;;;;;5.35;1.48;;;;;;;17.89;46.05;98911.16;5087285;28;20062;-74
2024/01/03 05:22:17;;;;;;;6.55;1.35;;;;;;;17.89;46.33;98908.50;5086768;28;20063;-75
2024/01/03 05:24:42;;;;;;;4.47;1.37;;;;;;;17.88;46.46;98904.22;5087107;28;20090;-72
2024/01/03 05:27:08;;;;;;;5.05;1.40;;;;;;;17.81;46.24;98900.59;5086636;28;20325;-72
2024/01/03 05:29:33;;;;;;;4.90;1.10;;;;;;;17.88;46.43;98912.13;5068568;28;20031;-72
2024/01/03 05:31:59;;;;;;;3.92;1.20;;;;;;;17.83;46.69;98896.81;5086723;28;20273;-73
2024/01/03 05:34:24;;;;;;;4.65;1.48;;;;;;;17.85;46.83;98901.88;5086931;28;20028;-71
2024/01/03 05:36:49;;;;;;;4.22;1.30;;;;;;;17.77;46.65;98895.66;5068620;28;20027;-71
2024/01/03 05:39:15;;;;;;;5.60;1.45;;;;;;;17.84;46.78;98901.06;5086653;28;20465;-74
2024/01/03 05:41:40;;;;;;;4.57;1.15;;;;;;;17.77;46.67;98900.13;5086442;28;20032;-73
2024/01/03 05:44:06;;;;;;;5.32;1.30;;;;;;;17.77;46.52;98897.50;5085224;28;20043;-74
2024/01/03 05:46:31;;;;;;;4.93;1.48;;;;;;;17.80;46.84;98898.94;5086998;28;20024;-74
2024/01/03 05:48:57;;;;;;;3.72;0.85;;;;;;;17.86;46.89;98909.63;5086662;28;20036;-74
2024/01/03 05:51:22;;;;;;;3.75;1.02;;;;;;;17.84;46.92;98916.06;5086182;28;20078;-74
2024/01/03 05:53:48;;;;;;;4.47;1.00;;;;;;;17.74;46.61;98896.00;5086554;28;20032;-72
2024/01/03 05:56:14;;;;;;;4.75;1.17;;;;;;;17.73;46.47;98904.06;5086616;28;20032;-71
2024/01/03 05:58:40;;;;;;;4.20;1.10;;;;;;;17.77;46.42;98906.22;5086190;28;20115;-74
2024/01/03 06:01:06;;;;;;;4.57;1.13;;;;;;;17.52;46.82;98868.56;5086322;28;20114;-72
2024/01/03 06:03:32;;;;;;;3.65;1.10;;;;;;;17.74;46.81;98903.09;5085332;28;20032;-73
2024/01/03 06:05:57;;;;;;;5.50;1.50;;;;;;;17.84;46.67;98916.06;5086772;28;20470;-73
2024/01/03 06:08:22;;;;;;;3.65;0.82;;;;;;;17.83;46.76;98920.53;5086713;28;20087;-70
2024/01/03 06:10:48;;;;;;;3.10;0.80;;;;;;;17.85;46.71;98922.97;5086457;28;20016;-73
2024/01/03 06:13:15;;;;;;;4.70;1.33;;;;;;;17.79;46.80;98919.22;5086537;28;20031;-73
2024/01/03 06:15:40;;;;;;;3.63;0.90;;;;;;;17.84;46.69;98914.25;5067654;28;20085;-73
2024/01/03 06:18:05;;;;;;;4.47;1.20;;;;;;;17.81;46.72;98913.78;5086415;28;20469;-74
2024/01/03 06:20:31;;;;;;;4.55;1.10;;;;;;;17.83;47.06;98910.00;5086097;28;20491;-70
2024/01/03 06:22:56;;;;;;;4.47;1.30;;;;;;;17.95;46.81;98928.91;5086046;28;20031;-72
2024/01/03 06:25:21;;;;;;;3.67;0.90;;;;;;;17.97;46.96;98920.84;5086293;28;21738;-74
2024/01/03 06:27:47;;;;;;;3.17;0.93;;;;;;;17.92;46.87;98906.34;5086354;28;20032;-70
2024/01/03 06:30:12;;;;;;;4.82;1.50;;;;;;;18.04;47.06;98908.59;5086096;28;20032;-72
2024/01/03 06:32:37;;;;;;;4.32;1.00;;;;;;;18.09;46.92;98907.13;5086329;28;20388;-70
2024/01/03 06:35:03;;;;;;;3.60;1.00;;;;;;;18.16;46.90;98919.63;5085818;28;20117;-73
2024/01/03 06:37:28;;;;;;;3.58;0.90;;;;;;;18.09;46.82;98904.47;5085826;28;20874;-72
2024/01/03 06:39:53;;;;;;;4.13;1.20;;;;;;;18.21;46.78;98917.28;5086375;28;20074;-74
2024/01/03 06:42:19;;;;;;;4.50;1.30;;;;;;;18.18;46.75;98912.34;5085322;28;20776;-74
2024/01/03 06:44:44;;;;;;;4.15;0.93;;;;;;;18.26;46.80;98928.13;5086294;28;20170;-70
2024/01/03 06:47:09;;;;;;;3.53;0.88;;;;;;;18.27;46.91;98921.88;5085417;28;20420;-73
2024/01/03 06:49:35;;;;;;;2.87;0.80;;;;;;;18.33;46.61;98929.09;5085645;28;20036;-71
2024/01/03 06:52:00;;;;;;;3.08;0.90;;;;;;;18.33;46.61;98926.47;5085992;28;20268;-73
2024/01/03 06:54:25;;;;;;;3.53;1.15;;;;;;;18.29;46.38;98926.00;5085523;28;20468;-73
2024/01/03 06:56:51;;;;;;;3.75;1.10;;;;;;;18.42;46.54;98945.69;5085724;28;20032;-71
2024/01/03 06:59:16;;;;;;;3.50;0.70;;;;;;;18.41;46.49;98958.06;5085105;28;20028;-69
2024/01/03 07:01:41;;;;;;;2.80;0.88;;;;;;;18.44;46.46;98955.09;5085365;28;20035;-72
2024/01/03 07:04:06;;;;;;;3.28;1.10;;;;;;;18.41;46.26;98965.16;5084809;28;20112;-72
2024/01/03 07:06:32;;;;;;;3.85;0.90;;;;;;;18.34;46.54;98943.94;5086119;28;20438;-73
2024/01/03 07:08:57;;;;;;;3.20;0.85;;;;;;;18.43;46.30;98968.44;5085901;28;20131;-72
2024/01/03 07:11:22;;;;;;;3.65;0.95;;;;;;;18.40;46.46;98961.69;5085841;28;20043;-71
2024/01/03 07:13:48;;;;;;;3.40;0.90;;;;;;;18.43;46.31;98963.16;5085876;28;20113;-70
2024/01/03 07:16:13;;;;;;;3.00;1.17;;;;;;;18.31;46.31;98946.91;5086375;28;20036;-71
2024/01/03 07:18:38;;;;;;;2.10;0.70;;;;;;;18.37;46.29;98954.13;5085704;28;20024;-74
2024/01/03 07:21:04;;;;;;;3.85;1.00;;;;;;;18.38;46.36;98950.50;5085170;28;20151;-69
2024/01/03 07:23:30;;;;;;;2.00;0.50;;;;;;;18.39;46.23;98962.69;5085228;28;20073;-73
2024/01/03 07:25:55;;;;;;;2.58;0.70;;;;;;;18.40;46.26;98966.97;5085026;28;20039;-71
2024/01/03 07:28:20;;;;;;;2.60;0.60;;;;;;;18.37;46.29;98963.84;5086725;28;20028;-72
2024/01/03 07:30:46;;;;;;;3.30;0.90;;;;;;;18.33;46.25;98962.56;5089292;28;20403;-72
2024/01/03 07:33:11;;;;;;;2.40;0.70;;;;;;;18.37;46.40;98972.56;5089692;28;20032;-70
2024/01/03 07:35:36;;;;;;;2.13;0.90;;;;;;;18.38;46.42;98976.06;5089310;28;20027;-68
2024/01/03 07:38:02;;;;;;;1.67;0.57;;;;;;;18.28;46.32;98949.91;5089031;28;20141;-70
2024/01/03 07:40:27;;;;;;;3.78;0.68;;;;;;;18.31;46.14;98975.94;5089385;28;20031;-73
2024/01/03 07:42:52;;;;;;;3.60;0.75;;;;;;;18.26;46.35;98968.53;5089370;28;20044;-70
2024/01/03 07:45:18;;;;;;;2.85;0.90;;;;;;;18.25;46.46;98968.69;5089295;28;20028;-72
2024/01/03 07:47:43;;;;;;;1.50;0.50;;;;;;;18.23;46.36;98971.50;5089230;28;20119;-73
2024/01/03 07:50:09;;;;;;;1.50;0.45;;;;;;;18.22;46.54;98967.22;5089370;28;20442;-72
2024/01/03 07:52:35;;;;;;;2.30;0.75;;;;;;;18.23;46.35;98976.78;5088714;28;20039;-74
2024/01/03 07:55:00;;;;;;;2.28;0.60;;;;;;;18.20;46.58;98977.13;5088965;28;20022;-71
2024/01/03 07:57:25;;;;;;;1.75;0.50;;;;;;;18.23;46.45;98978.56;5089155;28;20122;-72
2024/01/03 07:59:51;;;;;;;2.97;0.80;;;;;;;18.31;46.49;98997.03;5089037;28;20108;-74
2024/01/03 08:02:16;;;;;;;1.58;0.50;;;;;;;18.21;46.36;98985.84;5087960;28;20085;-73
2024/01/03 08:04:42;;;;;;;2.20;0.70;;;;;;;18.23;46.63;98983.84;5087411;28;20156;-71
2024/01/03 08:07:07;;;;;;;1.67;0.50;;;;;;;18.20;46.51;98982.38;5089372;28;20449;-70
2024/01/03 08:09:34;;;;;;;1.52;0.60;;;;;;;18.26;46.52;99000.16;5087977;28;20036;-72
2024/01/03 08:12:00;;;;;;;1.60;0.55;;;;;;;18.29;46.71;98998.97;5088903;28;20036;-72
2024/01/03 08:14:25;;;;;;;1.40;0.77;;;;;;;18.28;46.60;98997.34;5089407;28;20036;-73
2024/01/03 08:16:51;;;;;;;3.20;0.70;;;;;;;18.25;46.42;98998.50;5089054;28;20035;-70
2024/01/03 08:19:16;;;;;;;1.98;0.60;;;;;;;18.21;46.47;98997.19;5087086;28;20024;-73
2024/01/03 08:21:42;;;;;;;2.75;0.60;;;;;;;18.27;46.44;99007.06;5087870;28;20064;-71
2024/01/03 08:24:07;;;;;;;1.77;0.50;;;;;;;18.19;46.35;98995.72;5088584;28;20119;-71
2024/01/03 08:26:33;;;;;;;2.65;0.52;;;;;;;18.26;46.54;99004.59;5070558;28;20036;-72
2024/01/03 08:28:58;;;;;;;2.63;0.50;;;;;;;18.20;46.41;99000.00;5088486;28;20039;-72
2024/01/03 08:31:23;;;;;;;1.98;0.60;;;;;;;18.24;46.50;99006.59;5088397;28;20035;-70
2024/01/03 08:33:49;;;;;;;2.92;0.70;;;;;;;18.21;46.45;98996.38;5088248;28;20150;-72
2024/01/03 08:36:15;;;;;;;1.13;0.47;;;;;;;18.21;46.40;98999.00;5087699;28;20028;-70
2024/01/03 08:38:41;;;;;;;1.95;0.60;;;;;;;18.28;46.70;99003.44;5087925;28;20168;-71
2024/01/03 08:41:13;;;;;;;3.38;0.80;;;;;;;18.31;46.78;99013.66;5087803;28;20140;-71
2024/01/03 08:43:38;;;;;;;4.40;0.98;;;;;;;18.31;47.11;99010.22;5087897;28;20089;-71
2024/01/03 08:46:04;;;;;;;2.95;0.75;;;;;;;18.24;47.02;99004.75;5087691;28;20465;-71
2024/01/03 08:48:29;;;;;;;2.05;0.70;;;;;;;18.34;47.27;99016.94;5087756;28;20031;-71
2024/01/03 08:50:55;;;;;;;2.85;0.70;;;;;;;18.32;47.06;99009.19;5087859;28;20056;-72
2024/01/03 08:53:20;;;;;;;3.05;0.80;;;;;;;18.27;47.30;99007.06;5087908;28;20035;-71
2024/01/03 08:55:45;;;;;;;3.83;0.90;;;;;;;18.36;47.23;99030.75;5087653;28;20157;-69
2024/01/03 08:58:10;;;;;;;3.45;0.90;;;;;;;18.20;47.35;98998.22;5087553;28;20035;-71
2024/01/03 09:00:36;;;;;;;3.25;0.77;;;;;;;18.34;47.33;99027.47;5087768;28;20028;-70
2024/01/03 09:03:01;;;;;;;4.63;1.15;;;;;;;18.38;47.46;99023.53;5085654;28;20048;-71
2024/01/03 09:05:26;;;;;;;3.20;0.85;;;;;;;18.39;47.33;99036.53;5086865;28;20027;-70
2024/01/03 09:07:52;;;;;;;3.20;0.80;;;;;;;18.34;47.65;99028.34;5087640;28;20527;-71
2024/01/03 09:10:17;;;;;;;3.72;0.80;;;;;;;18.40;47.70;99029.44;5087058;28;20024;-70
2024/01/03 09:12:43;;;;;;;3.75;1.05;;;;;;;18.39;47.64;99031.28;5087401;28;20039;-71
2024/01/03 09:15:09;;;;;;;4.85;1.00;;;;;;;18.42;47.77;99038.00;5086862;28;20024;-73
2024/01/03 09:17:34;;;;;;;2.67;0.70;;;;;;;18.40;47.67;99038.16;5087698;28;20469;-69
2024/01/03 09:19:59;;;;;;;3.58;1.00;;;;;;;18.36;47.67;99030.75;5069246;28;20063;-69
2024/01/03 09:22:24;;;;;;;3.75;1.05;;;;;;;18.41;47.98;99041.66;5087792;28;20127;-71
2024/01/03 09:24:50;;;;;;;4.65;1.40;;;;;;;18.43;48.67;99037.84;5087822;28;20036;-71
2024/01/03 09:27:17;;;;;;;4.27;1.43;;;;;;;18.46;49.24;99034.84;5087683;28;20028;-71
2024/01/03 09:29:43;;;;;;;7.55;1.63;;;;;;;18.44;49.68;99033.41;5087566;28;20268;-70
2024/01/03 09:32:08;;;;;;;5.63;1.27;;;;;;;18.45;50.06;99035.88;5087102;28;20035;-71
2024/01/03 09:34:39;;;;;;;6.40;1.70;;;;;;;18.48;50.26;99032.91;5087242;28;20038;-71
2024/01/03 09:37:05;;;;;;;5.68;1.75;;;;;;;18.55;50.27;99042.72;5087209;28;20379;-69
2024/01/03 09:39:30;;;;;;;6.00;1.30;;;;;;;18.52;49.95;99041.28;5087263;28;20059;-72
2024/01/03 09:41:56;;;;;;;7.35;1.73;;;;;;;18.57;50.00;99051.31;5087497;28;20480;-70
2024/01/03 09:44:21;;;;;;;6.57;1.67;;;;;;;18.58;49.98;99060.88;5087118;28;20050;-70
2024/01/03 09:46:49;;;;;;;7.47;1.92;;;;;;;18.57;49.93;99046.06;5087501;28;20028;-71
2024/01/03 09:49:17;;;;;;;7.20;1.85;;;;;;;18.57;49.85;99056.59;5087344;28;20366;-71
2024/01/03 09:51:44;;;;;;;6.00;1.83;;;;;;;18.50;49.66;99040.63;5086916;28;20151;-69
2024/01/03 09:54:10;;;;;;;6.50;1.75;;;;;;;18.56;49.46;99055.75;5087467;28;20111;-73
2024/01/03 09:56:38;;;;;;;7.35;1.63;;;;;;;18.53;49.51;99056.09;5087401;28;20119;-72
2024/01/03 09:59:04;;;;;;;6.68;1.60;;;;;;;18.54;49.22;99055.13;5087568;28;20031;-72
2024/01/03 10:01:29;;;;;;;5.43;1.37;;;;;;;18.54;49.09;99057.75;5087077;28;20028;-70
2024/01/03 10:03:54;;;;;;;7.53;1.85;;;;;;;18.50;49.15;99056.47;5085052;28;20276;-72
2024/01/03 10:06:19;;;;;;;6.47;1.73;;;;;;;18.53;49.10;99045.53;5086734;28;20027;-72
2024/01/03 10:09:07;;;;;;;6.57;1.80;;;;;;;18.56;49.17;99076.06;5086418;28;20257;-69
2024/01/03 10:11:32;;;;;;;5.85;1.75;;;;;;;18.49;48.87;99054.81;5086588;28;20088;-71
2024/01/03 10:14:14;;;;;;;6.68;1.63;;;;;;;18.52;48.81;99064.19;5086289;28;20020;-69
2024/01/03 10:16:40;;;;;;;6.38;1.83;;;;;;;18.52;48.88;99067.66;5086091;28;20484;-74
2024/01/03 10:19:18;;;;;;;7.10;1.88;;;;;;;18.39;48.86;99054.16;5086616;28;20032;-73
2024/01/03 10:21:54;;;;;;;7.85;1.58;;;;;;;18.41;48.74;99060.94;5086533;28;20035;-73
2024/01/03 10:24:24;;;;;;;5.20;1.40;;;;;;;18.48;48.70;99080.38;5086937;28;20143;-72
2024/01/03 10:26:50;;;;;;;7.78;1.95;;;;;;;18.48;48.78;99077.75;5086930;28;20084;-73
2024/01/03 10:29:17;;;;;;;6.20;1.60;;;;;;;18.47;48.75;99083.19;5086572;28;20036;-71
2024/01/03 10:31:44;;;;;;;6.28;1.60;;;;;;;18.48;48.63;99068.97;5087039;28;20024;-72
2024/01/03 10:34:18;;;;;;;7.40;1.65;;;;;;;18.47;49.01;99083.19;5087409;28;20120;-72
2024/01/03 10:36:43;;;;;;;5.93;2.00;;;;;;;18.47;48.95;99076.09;5085775;28;20181;-71
2024/01/03 10:39:14;;;;;;;6.60;1.75;;;;;;;18.52;48.98;99080.00;5087004;28;20539;-72
2024/01/03 10:41:44;;;;;;;7.75;1.40;;;;;;;18.54;48.76;99084.13;5087142;28;20047;-72
2024/01/03 10:44:19;;;;;;;7.55;1.98;;;;;;;18.56;48.83;99089.25;5084115;28;20152;-71
2024/01/03 10:46:45;;;;;;;7.05;2.25;;;;;;;18.48;48.94;99080.38;5085642;28;20027;-68
2024/01/03 10:49:11;;;;;;;6.10;1.50;;;;;;;18.49;48.99;99074.09;5085369;28;20028;-68
2024/01/03 10:51:41;;;;;;;7.15;2.00;;;;;;;18.56;48.64;99084.78;5084112;28;20063;-69
2024/01/03 10:54:09;;;;;;;5.68;1.70;;;;;;;18.55;48.64;99090.22;5086188;28;20028;-70
2024/01/03 10:56:35;;;;;;;6.28;1.83;;;;;;;18.62;48.72;99089.38;5086414;28;20428;-69
2024/01/03 10:59:01;;;;;;;6.53;1.85;;;;;;;18.55;48.94;99074.38;5085787;28;20036;-71
2024/01/03 11:01:36;;;;;;;8.32;1.88;;;;;;;18.52;49.00;99066.81;5086635;28;20057;-68
2024/01/03 11:04:22;;;;;;;7.57;1.70;;;;;;;18.53;48.95;99057.91;5071247;28;20036;-68
2024/01/03 11:07:15;;;;;;;8.18;1.92;;;;;;;18.63;48.89;99077.84;5090507;28;20024;-70
2024/01/03 11:09:41;;;;;;;8.88;1.98;;;;;;;18.52;48.79;99066.81;5090861;28;20031;-71
2024/01/03 11:12:07;;;;;;;7.05;1.95;;;;;;;18.63;48.88;99082.31;5083832;28;20028;-72
2024/01/03 11:14:33;;;;;;;7.18;1.80;;;;;;;18.52;48.77;99074.72;5089203;28;20078;-71
2024/01/03 11:16:58;;;;;;;6.15;1.50;;;;;;;18.51;48.70;99084.47;5089239;28;20028;-68
2024/01/03 11:19:34;;;;;;;8.10;1.80;;;;;;;18.56;48.72;99078.69;5089780;28;20161;-68
2024/01/03 11:22:03;;;;;;;7.28;1.80;;;;;;;18.59;48.74;99095.00;5090049;28;20036;-72
2024/01/03 11:24:29;;;;;;;8.80;1.85;;;;;;;18.60;48.84;99093.19;5090017;28;20036;-73
2024/01/03 11:26:54;;;;;;;6.60;1.52;;;;;;;18.62;48.82;99099.94;5090182;28;20035;-70
2024/01/03 11:29:35;;;;;;;9.43;1.98;;;;;;;18.58;48.88;99093.38;5089984;28;20480;-70
2024/01/03 11:32:07;;;;;;;7.25;1.85;;;;;;;18.63;48.97;99109.50;5089676;28;20541;-68